Time;durP1;ratioP1;P1;durP2;ratioP2;P2;SDS_P1;SDS_P2;PMS_P1;PMS_P2;Temp;Humidity;BMP_temperature;BMP_pressure;BME280_temperature;BME280_humidity;BME280_pressure;Samples;Min_cycle;Max_cycle;Signal;HPM_P1;HPM_P2
2022/04/27 00:01:40;;;;;;;28.02;14.02;;;;;;;-141.50;100.00;63355.56;5098097;28;20044;-79
2022/04/27 00:04:07;;;;;;;23.52;13.60;;;;;;;-141.50;100.00;63355.56;5107673;28;20040;-79
2022/04/27 00:06:34;;;;;;;18.77;11.95;;;;;;;-141.50;100.00;63355.56;5102666;28;20044;-81
2022/04/27 00:09:01;;;;;;;22.15;12.80;;;;;;;-141.50;100.00;63355.56;5093990;28;20504;-82
2022/04/27 00:11:27;;;;;;;21.13;12.23;;;;;;;-141.50;100.00;63355.56;5103222;28;20067;-82
2022/04/27 00:13:54;;;;;;;31.52;15.13;;;;;;;-141.50;100.00;63355.56;5093395;28;20135;-82
2022/04/27 00:16:20;;;;;;;29.40;15.60;;;;;;;-141.50;100.00;63355.56;5095417;28;20075;-81
2022/04/27 00:18:47;;;;;;;29.05;14.98;;;;;;;-141.50;100.00;63355.56;5097198;28;20316;-82
2022/04/27 00:21:13;;;;;;;27.65;14.68;;;;;;;-141.50;100.00;63355.56;5092138;28;20413;-83
2022/04/27 00:23:40;;;;;;;23.95;14.07;;;;;;;-141.50;100.00;63355.56;5092098;28;20072;-80
2022/04/27 00:26:07;;;;;;;30.70;14.18;;;;;;;-141.50;100.00;63355.56;5096897;28;20216;-81
2022/04/27 00:28:33;;;;;;;22.83;12.00;;;;;;;-141.50;100.00;63355.56;5098681;28;20079;-80
2022/04/27 00:31:00;;;;;;;23.85;13.07;;;;;;;-141.50;100.00;63355.56;5098717;28;20117;-82
2022/04/27 00:33:27;;;;;;;22.20;12.80;;;;;;;-141.50;100.00;63355.56;5096498;28;20123;-82
2022/04/27 00:35:53;;;;;;;25.58;12.85;;;;;;;-141.50;100.00;63355.56;5100086;28;20052;-80
2022/04/27 00:38:20;;;;;;;23.00;12.00;;;;;;;-141.50;100.00;63355.56;5099572;28;20048;-78
2022/04/27 00:40:46;;;;;;;21.75;12.05;;;;;;;-141.50;100.00;63355.56;5095995;28;20075;-82
2022/04/27 00:43:14;;;;;;;28.52;13.02;;;;;;;-141.50;100.00;63355.56;5101788;28;20055;-83
2022/04/27 00:45:41;;;;;;;23.92;12.50;;;;;;;-141.50;100.00;63355.56;5102982;28;20052;-82
2022/04/27 00:48:11;;;;;;;23.20;12.85;;;;;;;-141.50;100.00;63355.56;5100059;28;20055;-82
2022/04/27 00:50:37;;;;;;;22.60;13.07;;;;;;;-141.50;100.00;63355.56;5090313;28;20156;-83
2022/04/27 00:53:04;;;;;;;25.67;13.10;;;;;;;-141.50;100.00;63355.56;5090755;28;20381;-83
2022/04/27 00:55:31;;;;;;;25.08;13.90;;;;;;;-141.50;100.00;63355.56;5102134;28;20055;-78
2022/04/27 00:57:59;;;;;;;25.60;12.60;;;;;;;-141.50;100.00;63355.56;5104028;28;20040;-79
2022/04/27 01:00:26;;;;;;;25.38;14.00;;;;;;;-141.50;100.00;63355.56;5088299;28;20052;-82
2022/04/27 01:02:53;;;;;;;21.73;12.10;;;;;;;-141.50;100.00;63355.56;5081965;28;20044;-77
2022/04/27 01:05:21;;;;;;;21.25;11.98;;;;;;;-141.50;100.00;63355.56;5076841;28;20099;-83
2022/04/27 01:07:48;;;;;;;22.38;11.57;;;;;;;-141.50;100.00;63355.56;5078274;28;20109;-81
2022/04/27 01:10:14;;;;;;;19.15;11.00;;;;;;;-141.50;100.00;63355.56;5080628;28;20045;-80
2022/04/27 01:12:41;;;;;;;28.88;12.65;;;;;;;-141.50;100.00;63355.56;5078409;28;20535;-82
2022/04/27 01:15:10;;;;;;;20.77;12.25;;;;;;;-141.50;100.00;63355.56;5074189;28;20048;-81
2022/04/27 01:17:36;;;;;;;19.65;11.88;;;;;;;-141.50;100.00;63355.56;5076601;28;20052;-80
2022/04/27 01:20:04;;;;;;;19.67;11.65;;;;;;;-141.50;100.00;63355.56;5085307;28;20072;-82
2022/04/27 01:22:31;;;;;;;20.25;10.88;;;;;;;-141.50;100.00;63355.56;5080998;28;20079;-80
2022/04/27 01:24:57;;;;;;;21.35;11.38;;;;;;;-141.50;100.00;63355.56;5083952;28;20062;-83
2022/04/27 01:27:24;;;;;;;19.05;11.35;;;;;;;-141.50;100.00;63355.56;5082732;28;20052;-81
2022/04/27 01:29:51;;;;;;;18.70;10.80;;;;;;;-141.50;100.00;63355.56;5088405;28;20048;-78
2022/04/27 01:32:18;;;;;;;20.45;10.95;;;;;;;-141.50;100.00;63355.56;5092381;28;20052;-79
2022/04/27 01:34:44;;;;;;;15.50;9.65;;;;;;;-141.50;100.00;63355.56;5092210;28;20055;-79
2022/04/27 01:39:56;;;;;;;19.42;11.38;;;;;;;-141.50;100.00;63355.56;5079537;28;20072;-81
2022/04/27 01:42:23;;;;;;;18.70;10.93;;;;;;;-141.50;100.00;63355.56;5080159;28;20048;-81
2022/04/27 01:44:49;;;;;;;22.30;11.68;;;;;;;-141.50;100.00;63355.56;5071072;28;20071;-81
2022/04/27 01:47:16;;;;;;;20.13;11.40;;;;;;;-141.50;100.00;63355.56;5071478;28;20099;-82
2022/04/27 01:49:43;;;;;;;18.60;11.60;;;;;;;-141.50;100.00;63355.56;5073483;28;20044;-81
2022/04/27 01:54:54;;;;;;;23.17;12.88;;;;;;;-141.50;100.00;63355.56;5087502;28;20428;-82
2022/04/27 01:57:20;;;;;;;25.35;13.65;;;;;;;-141.50;100.00;63355.56;5083736;28;20044;-83
2022/04/27 01:59:47;;;;;;;23.33;14.07;;;;;;;-141.50;100.00;63355.56;5094007;28;20075;-79
2022/04/27 02:02:13;;;;;;;27.48;16.38;;;;;;;-141.50;100.00;63355.56;5078881;28;20113;-79
2022/04/27 02:04:41;;;;;;;28.58;17.02;;;;;;;-141.50;100.00;63355.56;5080814;28;20044;-81
2022/04/27 02:07:08;;;;;;;27.13;16.15;;;;;;;-141.50;100.00;63355.56;5080259;28;20045;-82
2022/04/27 02:09:35;;;;;;;24.48;14.25;;;;;;;-141.50;100.00;63355.56;5076536;28;20053;-82
2022/04/27 02:12:06;;;;;;;20.13;11.60;;;;;;;-141.50;100.00;63355.56;5071251;28;20074;-79
2022/04/27 02:14:33;;;;;;;18.95;11.00;;;;;;;-141.50;100.00;63355.56;5073986;28;20072;-81
2022/04/27 02:17:00;;;;;;;19.98;10.20;;;;;;;-141.50;100.00;63355.56;5078471;28;20048;-81
2022/04/27 02:19:26;;;;;;;17.15;10.63;;;;;;;-141.50;100.00;63355.56;5080009;28;20076;-79
2022/04/27 02:21:53;;;;;;;16.55;9.80;;;;;;;-141.50;100.00;63355.56;5070494;28;20070;-80
2022/04/27 02:24:19;;;;;;;18.33;10.77;;;;;;;-141.50;100.00;63355.56;5074640;28;20134;-82
2022/04/27 02:26:46;;;;;;;18.08;10.43;;;;;;;-141.50;100.00;63355.56;5080031;28;20279;-78
2022/04/27 02:29:15;;;;;;;18.00;10.90;;;;;;;-141.50;100.00;63355.56;5085916;28;20059;-78
2022/04/27 02:31:42;;;;;;;18.30;10.52;;;;;;;-141.50;100.00;63355.56;5085162;28;20142;-81
2022/04/27 02:34:10;;;;;;;19.58;12.55;;;;;;;-141.50;100.00;63355.56;5085665;28;20044;-79
2022/04/27 02:36:36;;;;;;;22.75;13.07;;;;;;;-141.50;100.00;63355.56;5085903;28;20156;-79
2022/04/27 02:39:03;;;;;;;26.85;15.90;;;;;;;-141.50;100.00;63355.56;5074587;28;20206;-78
2022/04/27 02:41:30;;;;;;;26.38;14.75;;;;;;;-141.50;100.00;63355.56;5068499;28;20080;-82
2022/04/27 02:43:56;;;;;;;26.67;11.00;;;;;;;-141.50;100.00;63355.56;5071801;28;20489;-80
2022/04/27 02:46:23;;;;;;;21.95;12.05;;;;;;;-141.50;100.00;63355.56;5073194;28;20056;-80
2022/04/27 02:51:51;;;;;;;26.77;15.32;;;;;;;-141.50;100.00;63355.56;5077063;28;20104;-81
2022/04/27 02:54:19;;;;;;;27.75;16.52;;;;;;;-141.50;100.00;63355.56;5074175;28;20053;-81
2022/04/27 02:56:47;;;;;;;27.45;15.45;;;;;;;-141.50;100.00;63355.56;5075344;28;20110;-81
2022/04/27 02:59:14;;;;;;;27.25;14.70;;;;;;;-141.50;100.00;63355.56;5088707;28;20125;-80
2022/04/27 03:01:41;;;;;;;28.00;16.20;;;;;;;-141.50;100.00;63355.56;5079322;28;20117;-81
2022/04/27 03:04:10;;;;;;;29.08;16.15;;;;;;;-141.50;100.00;63355.56;5094062;28;20492;-80
2022/04/27 03:06:36;;;;;;;27.02;14.48;;;;;;;-141.50;100.00;63355.56;5101065;28;20082;-77
2022/04/27 03:09:03;;;;;;;24.45;14.95;;;;;;;-141.50;100.00;63355.56;5096553;28;20079;-82
2022/04/27 03:11:30;;;;;;;28.85;15.98;;;;;;;-141.50;100.00;63355.56;5095057;28;20052;-79
2022/04/27 03:13:57;;;;;;;28.80;15.18;;;;;;;-141.50;100.00;63355.56;5095600;28;20052;-82
2022/04/27 03:16:23;;;;;;;27.35;16.02;;;;;;;-141.50;100.00;63355.56;5094305;28;20496;-83
2022/04/27 03:18:50;;;;;;;29.42;17.05;;;;;;;-141.50;100.00;63355.56;5102058;28;20047;-83
2022/04/27 03:21:17;;;;;;;28.90;15.82;;;;;;;-141.50;100.00;63355.56;5100565;28;20101;-81
2022/04/27 03:23:44;;;;;;;31.58;16.63;;;;;;;-141.50;100.00;63355.56;5096319;28;20514;-79
2022/04/27 03:26:11;;;;;;;32.58;16.77;;;;;;;-141.50;100.00;63355.56;5096544;28;20083;-81
2022/04/27 03:28:37;;;;;;;30.60;17.27;;;;;;;-141.50;100.00;63355.56;5098255;28;20105;-83
2022/04/27 03:31:04;;;;;;;26.30;14.40;;;;;;;-141.50;100.00;63355.56;5102876;28;20090;-78
2022/04/27 03:33:30;;;;;;;20.90;12.00;;;;;;;-141.50;100.00;63355.56;5109665;28;20115;-79
2022/04/27 03:35:57;;;;;;;23.15;13.30;;;;;;;-141.50;100.00;63355.56;5109260;28;20052;-85
2022/04/27 03:38:23;;;;;;;25.20;14.45;;;;;;;-141.50;100.00;63355.56;5107154;28;20051;-82
2022/04/27 03:40:50;;;;;;;32.30;17.50;;;;;;;-141.50;100.00;63355.56;5099072;28;20063;-80
2022/04/27 03:43:17;;;;;;;29.38;17.48;;;;;;;-141.50;100.00;63355.56;5102029;28;20052;-80
2022/04/27 03:45:44;;;;;;;30.23;14.75;;;;;;;-141.50;100.00;63355.56;5104518;28;20055;-81
2022/04/27 03:48:10;;;;;;;34.42;16.63;;;;;;;-141.50;100.00;63355.56;5103837;28;20044;-82
2022/04/27 03:50:37;;;;;;;27.30;14.35;;;;;;;-141.50;100.00;63355.56;5102962;28;20545;-79
2022/04/27 03:53:04;;;;;;;24.23;12.48;;;;;;;-141.50;100.00;63355.56;5101849;28;20044;-82
2022/04/27 03:55:33;;;;;;;19.15;10.85;;;;;;;-141.50;100.00;63355.56;5099822;28;20071;-79
2022/04/27 03:58:04;;;;;;;25.02;11.07;;;;;;;-141.50;100.00;63355.56;5092313;28;20060;-79
2022/04/27 04:00:32;;;;;;;21.85;12.10;;;;;;;-141.50;100.00;63355.56;5078100;28;20460;-80
2022/04/27 04:03:00;;;;;;;28.15;13.07;;;;;;;-141.50;100.00;63355.56;5074193;28;20075;-79
2022/04/27 04:05:27;;;;;;;31.85;17.65;;;;;;;-141.50;100.00;63355.56;5075351;28;20071;-81
2022/04/27 04:07:54;;;;;;;27.98;16.65;;;;;;;-141.50;100.00;63355.56;5074071;28;20049;-82
2022/04/27 04:10:21;;;;;;;35.65;17.58;;;;;;;-141.50;100.00;63355.56;5073269;28;20786;-81
2022/04/27 04:12:47;;;;;;;31.55;17.70;;;;;;;-141.50;100.00;63355.56;5073529;28;20759;-82
2022/04/27 04:15:14;;;;;;;40.05;22.25;;;;;;;-141.50;100.00;63355.56;5075671;28;20052;-81
2022/04/27 04:17:45;;;;;;;43.67;23.42;;;;;;;-141.50;100.00;63355.56;5076950;28;20609;-81
2022/04/27 04:20:19;;;;;;;40.65;21.95;;;;;;;-141.50;100.00;63355.56;5082014;28;20070;-81
2022/04/27 04:22:47;;;;;;;52.40;27.08;;;;;;;-141.50;100.00;63355.56;5072574;28;20208;-81
2022/04/27 04:30:45;;;;;;;48.88;26.90;;;;;;;-141.50;100.00;63355.56;5088604;28;19943;-82
2022/04/27 04:33:11;;;;;;;49.72;25.77;;;;;;;-141.50;100.00;63355.56;5095871;28;20081;-78
2022/04/27 04:35:38;;;;;;;51.97;28.15;;;;;;;-141.50;100.00;63355.56;5103955;28;20146;-82
2022/04/27 04:38:05;;;;;;;50.83;26.77;;;;;;;-141.50;100.00;63355.56;5111164;28;20141;-78
2022/04/27 04:40:32;;;;;;;43.53;22.85;;;;;;;-141.50;100.00;63355.56;5107532;28;20412;-82
2022/04/27 04:42:59;;;;;;;41.47;21.50;;;;;;;-141.50;100.00;63355.56;5097931;28;20051;-83
2022/04/27 04:45:26;;;;;;;32.65;17.08;;;;;;;-141.50;100.00;63355.56;5093387;28;20048;-85
2022/04/27 04:47:52;;;;;;;41.95;20.65;;;;;;;-141.50;100.00;63355.56;5092307;28;20094;-80
2022/04/27 04:50:20;;;;;;;41.92;21.70;;;;;;;-141.50;100.00;63355.56;5112500;28;20078;-80
2022/04/27 04:52:47;;;;;;;44.95;23.00;;;;;;;-141.50;100.00;63355.56;5112617;28;20043;-80
2022/04/27 04:55:14;;;;;;;46.33;24.38;;;;;;;-141.50;100.00;63355.56;5111852;28;20051;-84
2022/04/27 04:57:40;;;;;;;51.85;24.98;;;;;;;-141.50;100.00;63355.56;5097312;28;20048;-84
2022/04/27 05:00:09;;;;;;;48.45;23.13;;;;;;;-141.50;100.00;63355.56;5075929;28;20074;-83
2022/04/27 05:02:36;;;;;;;41.72;20.65;;;;;;;-141.50;100.00;63355.56;5075200;28;20052;-84
2022/04/27 05:05:04;;;;;;;38.45;20.02;;;;;;;-141.50;100.00;63355.56;5072204;28;20136;-81
2022/04/27 05:07:34;;;;;;;39.03;19.67;;;;;;;-141.50;100.00;63355.56;5069209;28;20135;-84
2022/04/27 05:10:00;;;;;;;45.08;21.25;;;;;;;-141.50;100.00;63355.56;5070633;28;20072;-84
2022/04/27 05:12:27;;;;;;;40.78;22.00;;;;;;;-141.50;100.00;63355.56;5071734;28;20132;-83
2022/04/27 05:14:54;;;;;;;42.03;21.48;;;;;;;-141.50;100.00;63355.56;5074174;28;20076;-81
2022/04/27 05:17:21;;;;;;;37.88;21.20;;;;;;;-141.50;100.00;63355.56;5073273;28;20106;-84
2022/04/27 05:19:49;;;;;;;44.45;21.35;;;;;;;-141.50;100.00;63355.56;5073592;28;20528;-83
2022/04/27 05:22:15;;;;;;;42.35;22.45;;;;;;;-141.50;100.00;63355.56;5078923;28;20057;-84
2022/04/27 05:24:42;;;;;;;93.53;29.17;;;;;;;-141.50;100.00;63355.56;5073272;28;20055;-81
2022/04/27 05:27:08;;;;;;;72.38;26.95;;;;;;;-141.50;100.00;63355.56;5074538;28;20144;-85
2022/04/27 05:32:20;;;;;;;96.93;29.80;;;;;;;-141.50;100.00;63355.56;5094379;28;20072;-79
2022/04/27 05:34:47;;;;;;;87.80;30.50;;;;;;;-141.50;100.00;63355.56;5090239;28;20036;-80
2022/04/27 05:37:13;;;;;;;67.40;25.35;;;;;;;-141.50;100.00;63355.56;5094757;28;20043;-80
2022/04/27 05:39:40;;;;;;;72.93;26.92;;;;;;;-141.50;100.00;63355.56;5112986;28;20059;-80
2022/04/27 05:42:06;;;;;;;53.42;23.75;;;;;;;-141.50;100.00;63355.56;5101995;28;20036;-80
2022/04/27 05:44:33;;;;;;;50.63;22.77;;;;;;;-141.50;100.00;63355.56;5087076;28;20068;-84
2022/04/27 05:47:00;;;;;;;46.78;22.30;;;;;;;-141.50;100.00;63355.56;5096755;28;20134;-83
2022/04/27 05:49:26;;;;;;;50.63;23.00;;;;;;;-141.50;100.00;63355.56;5095909;28;20075;-82
2022/04/27 05:51:53;;;;;;;42.17;21.92;;;;;;;-141.50;100.00;63355.56;5096878;28;20047;-82
2022/04/27 05:54:19;;;;;;;58.72;24.27;;;;;;;-141.50;100.00;63355.56;5094341;28;20082;-81
2022/04/27 05:56:46;;;;;;;48.03;23.23;;;;;;;-141.50;100.00;63355.56;5095783;28;20492;-86
2022/04/27 05:59:12;;;;;;;41.42;22.33;;;;;;;-141.50;100.00;63355.56;5082434;28;20063;-82
2022/04/27 06:01:39;;;;;;;40.25;21.73;;;;;;;-141.50;100.00;63355.56;5095266;28;20516;-84
2022/04/27 06:04:06;;;;;;;36.70;21.30;;;;;;;-141.50;100.00;63355.56;5093420;28;20076;-83
2022/04/27 06:06:33;;;;;;;38.50;21.88;;;;;;;-141.50;100.00;63355.56;5091068;28;20052;-81
2022/04/27 06:08:59;;;;;;;34.63;20.55;;;;;;;-141.50;100.00;63355.56;5089692;28;20097;-82
2022/04/27 06:11:26;;;;;;;41.35;20.90;;;;;;;-141.50;100.00;63355.56;5088390;28;20090;-84
2022/04/27 06:13:52;;;;;;;38.20;21.80;;;;;;;-141.50;100.00;63355.56;5091406;28;20052;-85
2022/04/27 06:16:22;;;;;;;33.60;20.05;;;;;;;-141.50;100.00;63355.56;5093673;28;20086;-82
2022/04/27 06:18:48;;;;;;;37.85;20.75;;;;;;;-141.50;100.00;63355.56;5095685;28;20412;-84
2022/04/27 06:21:17;;;;;;;34.45;20.83;;;;;;;-141.50;100.00;63355.56;5092677;28;20177;-82
2022/04/27 06:23:44;;;;;;;36.25;21.45;;;;;;;-141.50;100.00;63355.56;5101735;28;20126;-82
2022/04/27 06:26:11;;;;;;;33.58;20.35;;;;;;;-141.50;100.00;63355.56;5104556;28;20059;-83
2022/04/27 06:28:38;;;;;;;31.38;20.15;;;;;;;-141.50;100.00;63355.56;5099644;28;20117;-84
2022/04/27 06:31:04;;;;;;;41.78;20.83;;;;;;;-141.50;100.00;63355.56;5077889;28;20044;-84
2022/04/27 06:33:31;;;;;;;30.90;20.50;;;;;;;-141.50;100.00;63355.56;5076995;28;20129;-86
2022/04/27 06:36:01;;;;;;;32.63;20.30;;;;;;;-141.50;100.00;63355.56;5075677;28;20049;-84
2022/04/27 06:38:27;;;;;;;32.30;20.35;;;;;;;-141.50;100.00;63355.56;5076585;28;20095;-86
2022/04/27 06:41:04;;;;;;;32.28;20.02;;;;;;;-141.50;100.00;63355.56;5076250;28;20081;-84
2022/04/27 06:43:30;;;;;;;31.42;18.80;;;;;;;-141.50;100.00;63355.56;5077154;28;20084;-82
2022/04/27 06:45:59;;;;;;;28.80;18.95;;;;;;;-141.50;100.00;63355.56;5076364;28;20052;-82
2022/04/27 06:48:26;;;;;;;31.58;18.80;;;;;;;-141.50;100.00;63355.56;5079612;28;20071;-85
2022/04/27 06:50:53;;;;;;;29.83;19.02;;;;;;;-141.50;100.00;63355.56;5092085;28;20032;-83
2022/04/27 06:53:19;;;;;;;28.25;18.33;;;;;;;-141.50;100.00;63355.56;5099874;28;20415;-82
2022/04/27 06:55:48;;;;;;;26.48;17.83;;;;;;;-141.50;100.00;63355.56;5093628;28;20040;-84
2022/04/27 06:58:15;;;;;;;30.48;18.20;;;;;;;-141.50;100.00;63355.56;5089832;28;20064;-83
2022/04/27 07:00:41;;;;;;;24.98;17.02;;;;;;;-141.50;100.00;63355.56;5088602;28;20132;-82
2022/04/27 07:03:08;;;;;;;26.17;17.83;;;;;;;-141.50;100.00;63355.56;5084056;28;20079;-83
2022/04/27 07:05:35;;;;;;;30.48;19.88;;;;;;;-141.50;100.00;63355.56;5082599;28;20128;-84
2022/04/27 07:08:04;;;;;;;32.00;20.23;;;;;;;-141.50;100.00;63355.56;5083262;28;20056;-84
2022/04/27 07:10:36;;;;;;;29.35;20.73;;;;;;;-141.50;100.00;63355.56;5076004;28;20385;-83
2022/04/27 07:13:05;;;;;;;40.25;24.98;;;;;;;-141.50;100.00;63355.56;5092336;28;20055;-83
2022/04/27 07:15:32;;;;;;;31.60;22.85;;;;;;;-141.50;100.00;63355.56;5092918;28;20071;-83
2022/04/27 07:17:59;;;;;;;30.02;20.60;;;;;;;-141.50;100.00;63355.56;5095344;28;20085;-86
2022/04/27 07:20:26;;;;;;;28.85;19.58;;;;;;;-141.50;100.00;63355.56;5112156;28;20044;-81
2022/04/27 07:22:52;;;;;;;29.60;19.85;;;;;;;-141.50;100.00;63355.56;5113136;28;20048;-81
2022/04/27 07:25:19;;;;;;;28.23;19.35;;;;;;;-141.50;100.00;63355.56;5107594;28;20040;-83
2022/04/27 07:27:45;;;;;;;32.85;19.95;;;;;;;-141.50;100.00;63355.56;5090717;28;20072;-84
2022/04/27 07:30:13;;;;;;;34.63;20.27;;;;;;;-141.50;100.00;63355.56;5084694;28;20293;-85
2022/04/27 07:32:40;;;;;;;29.77;19.65;;;;;;;-141.50;100.00;63355.56;5081250;28;20494;-84
2022/04/27 07:35:07;;;;;;;26.40;18.10;;;;;;;-141.50;100.00;63355.56;5081046;28;20041;-84
2022/04/27 07:37:38;;;;;;;25.45;18.13;;;;;;;-141.50;100.00;63355.56;5097979;28;20117;-85
2022/04/27 07:40:12;;;;;;;25.10;17.77;;;;;;;-141.50;100.00;63355.56;5098705;28;20094;-84
2022/04/27 07:42:39;;;;;;;26.90;17.92;;;;;;;-141.50;100.00;63355.56;5097193;28;20109;-84
2022/04/27 07:45:07;;;;;;;26.73;17.67;;;;;;;-141.50;100.00;63355.56;5094592;28;20071;-84
2022/04/27 07:47:38;;;;;;;23.30;16.45;;;;;;;-141.50;100.00;63355.56;5074499;28;20213;-85
2022/04/27 07:50:07;;;;;;;27.02;16.90;;;;;;;-141.50;100.00;63355.56;5073461;28;20538;-85
2022/04/27 07:52:34;;;;;;;25.95;15.90;;;;;;;-141.50;100.00;63355.56;5073598;28;20200;-80
2022/04/27 07:55:00;;;;;;;25.10;16.02;;;;;;;-141.50;100.00;63355.56;5076727;28;20040;-84
2022/04/27 07:57:31;;;;;;;23.17;14.90;;;;;;;-141.50;100.00;63355.56;5077964;28;20088;-82
2022/04/27 07:59:59;;;;;;;20.25;15.10;;;;;;;-141.50;100.00;63355.56;5087459;28;20055;-82
2022/04/27 08:02:25;;;;;;;24.02;15.18;;;;;;;-141.50;100.00;63355.56;5093950;28;20113;-83
2022/04/27 08:04:52;;;;;;;24.30;15.00;;;;;;;-141.50;100.00;63355.56;5075281;28;20113;-83
2022/04/27 08:07:19;;;;;;;24.48;14.15;;;;;;;-141.50;100.00;63355.56;5088585;28;20048;-83
2022/04/27 08:09:45;;;;;;;20.25;14.27;;;;;;;-141.50;100.00;63355.56;5100028;28;20051;-84
2022/04/27 08:12:12;;;;;;;21.38;13.93;;;;;;;-141.50;100.00;63355.56;5102815;28;20048;-84
2022/04/27 08:14:38;;;;;;;18.05;12.68;;;;;;;-141.50;100.00;63355.56;5100130;28;20139;-81
2022/04/27 08:17:05;;;;;;;21.38;13.15;;;;;;;-141.50;100.00;63355.56;5099426;28;20114;-85
2022/04/27 08:19:31;;;;;;;21.92;12.95;;;;;;;-141.50;100.00;63355.56;5099113;28;20434;-86
2022/04/27 08:21:59;;;;;;;18.00;12.90;;;;;;;-141.50;100.00;63355.56;5098932;28;20070;-85
2022/04/27 08:24:25;;;;;;;19.38;12.88;;;;;;;-141.50;100.00;63355.56;5099604;28;20074;-81
2022/04/27 08:26:53;;;;;;;21.70;12.02;;;;;;;-141.50;100.00;63355.56;5099933;28;20129;-84
2022/04/27 08:29:20;;;;;;;15.38;10.85;;;;;;;-141.50;100.00;63355.56;5098299;28;20556;-84
2022/04/27 08:31:46;;;;;;;19.70;11.70;;;;;;;-141.50;100.00;63355.56;5098956;28;20243;-84
2022/04/27 08:34:14;;;;;;;19.13;12.95;;;;;;;-141.50;100.00;63355.56;5101748;28;20048;-85
2022/04/27 08:36:40;;;;;;;25.17;13.38;;;;;;;-141.50;100.00;63355.56;5099804;28;20160;-83
2022/04/27 08:39:07;;;;;;;20.15;11.70;;;;;;;-141.50;100.00;63355.56;5099903;28;20139;-84
2022/04/27 08:41:33;;;;;;;22.38;12.40;;;;;;;-141.50;100.00;63355.56;5090836;28;20067;-83
2022/04/27 08:44:00;;;;;;;16.38;10.95;;;;;;;-141.50;100.00;63355.56;5070552;28;20088;-84
2022/04/27 08:46:28;;;;;;;16.17;10.70;;;;;;;-141.50;100.00;63355.56;5073238;28;20098;-82
2022/04/27 08:48:55;;;;;;;16.48;11.30;;;;;;;-141.50;100.00;63355.56;5072666;28;20531;-79
2022/04/27 08:51:21;;;;;;;17.73;11.05;;;;;;;-141.50;100.00;63355.56;5077812;28;20048;-81
2022/04/27 08:53:49;;;;;;;18.20;11.38;;;;;;;-141.50;100.00;63355.56;5079319;28;20492;-80
2022/04/27 08:56:16;;;;;;;20.10;11.70;;;;;;;-141.50;100.00;63355.56;5078531;28;20075;-83
2022/04/27 08:58:43;;;;;;;16.25;11.07;;;;;;;-141.50;100.00;63355.56;5087039;28;20483;-79
2022/04/27 09:01:10;;;;;;;16.52;11.50;;;;;;;-141.50;100.00;63355.56;5092457;28;20117;-81
2022/04/27 09:03:39;;;;;;;16.73;11.95;;;;;;;-141.50;100.00;63355.56;5101083;28;20048;-82
2022/04/27 09:06:09;;;;;;;19.88;11.95;;;;;;;-141.50;100.00;63355.56;5105307;28;20173;-81
2022/04/27 09:08:36;;;;;;;17.05;11.95;;;;;;;-141.50;100.00;63355.56;5098597;28;20056;-82
2022/04/27 09:11:22;;;;;;;20.67;11.52;;;;;;;-141.50;100.00;63355.56;5098823;28;20056;-81
2022/04/27 09:14:02;;;;;;;21.42;11.70;;;;;;;-141.50;100.00;63355.56;5100136;28;20082;-83
2022/04/27 09:22:06;;;;;;;15.18;10.63;;;;;;;-141.50;100.00;63355.56;5097860;28;20121;-81
2022/04/27 09:24:54;;;;;;;17.25;10.40;;;;;;;-141.50;100.00;63355.56;5099266;28;20087;-81
2022/04/27 09:27:23;;;;;;;16.00;10.13;;;;;;;-141.50;100.00;63355.56;5097615;28;20082;-79
2022/04/27 09:30:04;;;;;;;12.75;10.15;;;;;;;-141.50;100.00;63355.56;5097346;28;20051;-80
2022/04/27 09:32:31;;;;;;;14.60;10.20;;;;;;;-141.50;100.00;63355.56;5092578;28;20407;-82
2022/04/27 09:35:03;;;;;;;14.23;10.18;;;;;;;-141.50;100.00;63355.56;5096172;28;20044;-81
2022/04/27 09:37:38;;;;;;;15.45;10.32;;;;;;;-141.50;100.00;63355.56;5094597;28;20573;-81
2022/04/27 09:40:13;;;;;;;13.75;10.18;;;;;;;-141.50;100.00;63355.56;5093404;28;20052;-81
2022/04/27 09:42:46;;;;;;;18.05;10.68;;;;;;;-141.50;100.00;63355.56;5093717;28;20044;-82
2022/04/27 09:45:22;;;;;;;16.38;10.07;;;;;;;-141.50;100.00;63355.56;5097742;28;20048;-81
2022/04/27 09:48:01;;;;;;;14.80;9.20;;;;;;;-141.50;100.00;63355.56;5104816;28;20111;-80
2022/04/27 09:51:01;;;;;;;15.60;8.75;;;;;;;-141.50;100.00;63355.56;5103295;28;20117;-82
2022/04/27 09:53:29;;;;;;;15.05;9.95;;;;;;;-141.50;100.00;63355.56;5103897;28;20058;-80
2022/04/27 09:56:16;;;;;;;;;;;;;;;;;;;;;
2022/04/27 09:58:44;;;;;;;14.65;10.07;;;;;;;-141.50;100.00;63355.56;5096377;28;20052;-83
2022/04/27 10:01:19;;;;;;;15.45;10.10;;;;;;;-141.50;100.00;63355.56;5101306;28;20113;-79
2022/04/27 10:03:57;;;;;;;14.15;10.45;;;;;;;-141.50;100.00;63355.56;5078373;28;20044;-80
2022/04/27 10:06:24;;;;;;;16.70;10.50;;;;;;;-141.50;100.00;63355.56;5083222;28;20052;-80
2022/04/27 10:08:53;;;;;;;13.80;9.40;;;;;;;-141.50;100.00;63355.56;5084000;28;20044;-81
2022/04/27 10:11:27;;;;;;;16.65;10.43;;;;;;;-141.50;100.00;63355.56;5084746;28;20071;-81
2022/04/27 10:14:20;;;;;;;12.68;8.77;;;;;;;-141.50;100.00;63355.56;5084147;28;20079;-82
2022/04/27 10:16:49;;;;;;;13.90;8.63;;;;;;;-141.50;100.00;63355.56;5085696;28;20059;-79
2022/04/27 10:19:17;;;;;;;11.15;6.68;;;;;;;-141.50;100.00;63355.56;5083272;28;20048;-83
2022/04/27 10:21:59;;;;;;;13.38;7.70;;;;;;;-141.50;100.00;63355.56;5082824;28;20113;-80
2022/04/27 10:24:35;;;;;;;13.10;7.95;;;;;;;-141.50;100.00;63355.56;5088867;28;20064;-83
2022/04/27 10:27:15;;;;;;;10.10;7.32;;;;;;;-141.50;100.00;63355.56;5104690;28;20082;-83
2022/04/27 10:29:53;;;;;;;7.10;5.32;;;;;;;-141.50;100.00;63355.56;5103903;28;20070;-82
2022/04/27 10:32:40;;;;;;;9.02;5.95;;;;;;;-141.50;100.00;63355.56;5106469;28;20056;-81
2022/04/27 10:35:12;;;;;;;8.60;6.33;;;;;;;-141.50;100.00;63355.56;5103785;28;20514;-81
2022/04/27 10:37:54;;;;;;;8.55;6.03;;;;;;;-141.50;100.00;63355.56;5103945;28;20075;-82
2022/04/27 10:40:43;;;;;;;8.00;5.85;;;;;;;-141.50;100.00;63355.56;5104214;28;20117;-82
2022/04/27 10:43:15;;;;;;;7.95;5.85;;;;;;;-141.50;100.00;63355.56;5101766;28;20092;-82
2022/04/27 10:45:44;;;;;;;7.45;5.35;;;;;;;-141.50;100.00;63355.56;5098633;28;20051;-81
2022/04/27 10:48:15;;;;;;;6.15;4.82;;;;;;;-141.50;100.00;63355.56;5105377;28;20048;-83
2022/04/27 10:50:55;;;;;;;8.93;5.85;;;;;;;-141.50;100.00;63355.56;5103942;28;20060;-82
2022/04/27 10:53:27;;;;;;;9.13;6.13;;;;;;;-141.50;100.00;63355.56;5103690;28;20052;-81
2022/04/27 10:56:22;;;;;;;8.43;6.18;;;;;;;-141.50;100.00;63355.56;5103214;28;20048;-81
2022/04/27 10:58:49;;;;;;;7.18;5.30;;;;;;;-141.50;100.00;63355.56;5093417;28;20526;-83
2022/04/27 11:01:22;;;;;;;11.15;5.65;;;;;;;-141.50;100.00;63355.56;5081067;28;20052;-80
2022/04/27 11:04:09;;;;;;;9.20;6.32;;;;;;;-141.50;100.00;63355.56;5083701;28;20063;-82
2022/04/27 11:06:56;;;;;;;8.27;6.05;;;;;;;-141.50;100.00;63355.56;5075675;28;20079;-81
2022/04/27 11:09:49;;;;;;;6.50;5.00;;;;;;;-141.50;100.00;63355.56;5092113;28;20115;-80
2022/04/27 11:12:16;;;;;;;8.27;5.75;;;;;;;-141.50;100.00;63355.56;5085048;28;20490;-80
2022/04/27 11:14:45;;;;;;;7.72;6.18;;;;;;;-141.50;100.00;63355.56;5084316;28;20374;-83
2022/04/27 11:17:13;;;;;;;7.32;5.45;;;;;;;-141.50;100.00;63355.56;5084286;28;20045;-81
2022/04/27 11:19:40;;;;;;;7.60;5.85;;;;;;;-141.50;100.00;63355.56;5088143;28;20070;-82
2022/04/27 11:22:14;;;;;;;7.15;5.60;;;;;;;-141.50;100.00;63355.56;5089252;28;20044;-81
2022/04/27 11:24:42;;;;;;;7.13;4.10;;;;;;;-141.50;100.00;63355.56;5088324;28;20048;-81
2022/04/27 11:27:09;;;;;;;7.53;4.70;;;;;;;-141.50;100.00;63355.56;5087497;28;20045;-80